Bryant, Illinois
Current Conditions -  °F | °C
As of 8:54 AM on Monday 24 Nov 2014 (Local Time) from KPIA Reporting Station
Light Snow Light Snow  
Wind Chill: 23°   Ceiling: 1500
Heat Index: 35°   Visibility: 2.5mi
Dew Point: 29°   Wind: 24mph
Humidity: 78%   Direction: 270°W
Pressure: 29.41"   Gusts: 32mph
Location:  40.47°N, 90.09°W
Report Text: KPIA 241454Z 27021G28KT 2 1/2SM -SN SCT010 OVC015 02/M02 A2941 RMK AO2 PK WND 27029/1427 SLP961 P0001 60009 T00171017 53049
Loading
Personal Weather Stations






























Interactive Weather Map New forecast layout! Learn more

10-Day Weather Forecast

Advertisements
Track Severe Weather on mobile